createdAt,value
2022-08-01T00:00:51.505Z,88.48
2022-08-01T00:03:19.268Z,88.79
2022-08-01T00:05:47.534Z,89.44
2022-08-01T00:08:15.299Z,87.12
2022-08-01T00:10:44.328Z,89.32
2022-08-01T00:13:12.034Z,86.74
2022-08-01T00:15:39.731Z,87.91
2022-08-01T00:18:07.557Z,90.48
2022-08-01T00:20:35.270Z,90.32
2022-08-01T00:23:04.334Z,88.28
2022-08-01T00:25:34.041Z,88.22
2022-08-01T00:28:04.473Z,87.33
2022-08-01T00:30:32.646Z,86.96
2022-08-01T00:33:00.464Z,86.80
2022-08-01T00:35:30.142Z,88.71
2022-08-01T00:37:57.907Z,87.72
2022-08-01T00:40:25.595Z,85.70
2022-08-01T00:42:53.345Z,86.57
2022-08-01T00:45:22.454Z,84.94
2022-08-01T00:47:55.361Z,85.98
2022-08-01T00:50:24.774Z,84.83
2022-08-01T00:52:53.010Z,84.94
2022-08-01T00:55:21.476Z,84.68
2022-08-01T00:58:03.243Z,86.02
2022-08-01T01:00:52.396Z,86.09
2022-08-01T01:03:26.384Z,86.92
2022-08-01T01:06:15.552Z,86.89
2022-08-01T01:08:47.700Z,87.77
2022-08-01T01:11:20.331Z,87.47
2022-08-01T01:13:54.769Z,87.54
2022-08-01T01:16:24.408Z,87.06
2022-08-01T01:18:55.092Z,85.75
2022-08-01T01:21:35.853Z,85.43
2022-08-01T01:24:15.925Z,85.63
2022-08-01T01:26:48.248Z,86.33
2022-08-01T01:29:19.338Z,87.09
2022-08-01T01:31:50.301Z,87.31
2022-08-01T01:34:20.805Z,86.57
2022-08-01T01:36:50.248Z,88.24
2022-08-01T01:39:18.796Z,86.40
2022-08-01T01:41:47.393Z,87.49
2022-08-01T01:44:16.620Z,88.02
2022-08-01T01:46:44.844Z,86.43
2022-08-01T01:49:13.050Z,86.40
2022-08-01T01:51:41.688Z,86.09
2022-08-01T01:54:17.158Z,87.52
2022-08-01T01:56:50.444Z,86.76
2022-08-01T01:59:25.641Z,85.96
2022-08-01T02:02:06.033Z,87.37
2022-08-01T02:04:34.969Z,88.56
2022-08-01T02:07:03.757Z,89.35
2022-08-01T02:09:32.774Z,88.90
2022-08-01T02:12:07.787Z,88.18
2022-08-01T02:14:40.859Z,87.96
2022-08-01T02:17:08.693Z,88.60
2022-08-01T02:19:38.665Z,87.08
2022-08-01T02:22:10.189Z,87.79
2022-08-01T02:24:39.763Z,90.01
2022-08-01T02:27:10.349Z,90.07
2022-08-01T02:29:42.928Z,88.51
2022-08-01T02:32:14.377Z,89.21
2022-08-01T02:34:43.062Z,90.86
2022-08-01T02:37:12.294Z,89.36
2022-08-01T02:39:40.650Z,87.40
2022-08-01T02:42:09.938Z,90.07
2022-08-01T02:44:41.506Z,88.81
2022-08-01T02:47:11.117Z,89.60
2022-08-01T02:49:43.747Z,89.85
2022-08-01T02:52:16.829Z,88.92
2022-08-01T02:54:46.437Z,88.95
2022-08-01T02:57:14.978Z,90.12
2022-08-01T02:59:45.010Z,88.87
2022-08-01T03:02:14.353Z,91.87
2022-08-01T03:04:43.470Z,90.19
2022-08-01T03:07:12.544Z,87.84
2022-08-01T03:09:41.746Z,89.33
2022-08-01T03:12:12.608Z,89.06
2022-08-01T03:14:42.604Z,89.08
2022-08-01T03:17:12.544Z,90.33
2022-08-01T03:19:41.097Z,89.46
2022-08-01T03:22:10.496Z,88.89
2022-08-01T03:24:40.376Z,90.44
2022-08-01T03:27:08.446Z,89.11
2022-08-01T03:29:36.420Z,88.64
2022-08-01T03:32:04.804Z,88.75
2022-08-01T03:34:34.383Z,88.01
2022-08-01T03:37:07.914Z,89.72
2022-08-01T03:39:42.127Z,89.99
2022-08-01T03:42:14.778Z,89.48
2022-08-01T03:44:43.338Z,89.88
2022-08-01T03:47:12.063Z,88.43
2022-08-01T03:49:44.025Z,91.48
2022-08-01T03:52:12.836Z,88.55
2022-08-01T03:54:44.325Z,90.87
2022-08-01T03:57:35.044Z,88.81
2022-08-01T04:00:01.884Z,89.71
2022-08-01T04:02:30.215Z,89.05
2022-08-01T04:05:01.059Z,88.65
2022-08-01T04:07:32.472Z,89.03
2022-08-01T04:10:00.515Z,88.33
2022-08-01T04:12:30.185Z,87.88
2022-08-01T04:14:57.956Z,89.31
2022-08-01T04:17:25.818Z,87.90
2022-08-01T04:19:53.524Z,89.13
2022-08-01T04:22:22.584Z,89.11
2022-08-01T04:24:56.868Z,90.04
2022-08-01T04:27:50.272Z,89.20
2022-08-01T04:30:20.821Z,88.74
2022-08-01T04:32:50.714Z,88.87
2022-08-01T04:35:23.288Z,89.25
2022-08-01T04:38:10.942Z,90.73
2022-08-01T04:40:39.707Z,92.04
2022-08-01T04:43:07.711Z,89.52
2022-08-01T04:45:35.609Z,88.56
2022-08-01T04:48:03.763Z,89.77
2022-08-01T04:50:32.710Z,89.23
2022-08-01T04:53:00.512Z,90.22
2022-08-01T04:55:32.186Z,89.00
2022-08-01T04:58:00.349Z,90.04
2022-08-01T05:00:30.160Z,89.43
2022-08-01T05:02:58.695Z,90.36
2022-08-01T05:05:27.122Z,90.06
2022-08-01T05:07:54.847Z,89.66
2022-08-01T05:10:22.537Z,90.69
2022-08-01T05:12:51.623Z,89.98
2022-08-01T05:15:19.573Z,90.11
2022-08-01T05:17:47.725Z,89.63
2022-08-01T05:20:15.459Z,91.22
2022-08-01T05:22:43.616Z,90.22
2022-08-01T05:25:11.374Z,90.21
2022-08-01T05:27:41.589Z,89.63
2022-08-01T05:30:11.902Z,91.17
2022-08-01T05:32:40.028Z,91.75
2022-08-01T05:35:09.351Z,92.08
2022-08-01T05:37:37.061Z,90.68
2022-08-01T05:40:09.168Z,89.53
2022-08-01T05:42:36.909Z,90.90
2022-08-01T05:45:06.384Z,92.25
2022-08-01T05:47:35.506Z,92.28
2022-08-01T05:50:04.789Z,90.67
2022-08-01T05:52:32.796Z,92.01
2022-08-01T05:55:00.596Z,92.59
2022-08-01T05:57:29.640Z,90.77
2022-08-01T05:59:57.366Z,90.56
2022-08-01T06:02:25.348Z,91.39
2022-08-01T06:04:54.464Z,93.01
2022-08-01T06:07:22.209Z,93.27
2022-08-01T06:09:49.922Z,94.46
2022-08-01T06:12:17.670Z,93.69
2022-08-01T06:14:45.499Z,94.34
2022-08-01T06:17:13.319Z,94.02
2022-08-01T06:19:41.006Z,92.92
2022-08-01T06:22:10.104Z,91.52
2022-08-01T06:24:38.526Z,93.54
2022-08-01T06:27:06.397Z,95.59
2022-08-01T06:29:53.860Z,94.61
2022-08-01T06:32:27.034Z,93.67
2022-08-01T06:34:55.412Z,93.02
2022-08-01T06:37:25.052Z,95.26
2022-08-01T06:39:53.280Z,94.27
2022-08-01T06:42:21.020Z,93.48
2022-08-01T06:44:48.716Z,93.73
2022-08-01T06:47:16.387Z,94.93
2022-08-01T06:49:44.108Z,94.13
2022-08-01T06:52:12.077Z,94.22
2022-08-01T06:54:41.085Z,93.48
2022-08-01T06:57:08.916Z,94.99
2022-08-01T06:59:36.660Z,94.21
2022-08-01T07:02:04.817Z,95.54
2022-08-01T07:04:33.884Z,94.56
2022-08-01T07:07:04.122Z,95.81
2022-08-01T07:09:31.956Z,92.75
2022-08-01T07:12:01.013Z,95.77
2022-08-01T07:14:29.765Z,95.07
2022-08-01T07:16:57.563Z,93.97
2022-08-01T07:19:25.377Z,94.35
2022-08-01T07:21:53.073Z,95.21
2022-08-01T07:24:22.285Z,94.32
2022-08-01T07:26:53.883Z,93.03
2022-08-01T07:29:24.716Z,93.94
2022-08-01T07:31:53.822Z,95.32
2022-08-01T07:34:21.585Z,94.67
2022-08-01T07:36:49.352Z,93.87
2022-08-01T07:39:17.440Z,94.19
2022-08-01T07:42:05.548Z,95.01
2022-08-01T07:44:34.283Z,94.26
2022-08-01T07:47:03.486Z,95.04
2022-08-01T07:49:34.849Z,93.57
2022-08-01T07:52:05.824Z,91.89
2022-08-01T07:54:34.583Z,94.00
2022-08-01T07:57:04.090Z,95.19
2022-08-01T07:59:32.297Z,95.02
2022-08-01T08:02:01.427Z,95.06
2022-08-01T08:04:30.109Z,94.11
2022-08-01T08:06:57.862Z,93.33
2022-08-01T08:09:25.640Z,94.42
2022-08-01T08:11:53.354Z,93.22
2022-08-01T08:14:23.609Z,93.95
2022-08-01T08:17:03.506Z,93.13
2022-08-01T08:19:37.919Z,93.36
2022-08-01T08:22:07.560Z,92.87
2022-08-01T08:24:35.765Z,93.37
2022-08-01T08:27:05.205Z,93.75
2022-08-01T08:29:33.743Z,95.13
2022-08-01T08:32:04.983Z,93.03
2022-08-01T08:34:33.029Z,93.13
2022-08-01T08:37:03.083Z,93.76
2022-08-01T08:39:32.568Z,93.27
2022-08-01T08:42:11.031Z,93.76
2022-08-01T08:44:39.637Z,91.49
2022-08-01T08:47:19.076Z,92.92
2022-08-01T08:49:49.320Z,92.60
2022-08-01T08:52:17.883Z,92.56
2022-08-01T08:54:47.455Z,92.44
2022-08-01T08:57:15.807Z,91.61
2022-08-01T08:59:45.354Z,92.22
2022-08-01T09:02:14.797Z,92.62
2022-08-01T09:04:42.749Z,92.63
2022-08-01T09:07:12.237Z,93.02
2022-08-01T09:09:41.513Z,92.49
2022-08-01T09:12:10.709Z,92.14
2022-08-01T09:14:47.114Z,91.03
2022-08-01T09:17:17.263Z,90.38
2022-08-01T09:19:48.479Z,89.70
2022-08-01T09:22:18.944Z,91.07
2022-08-01T09:24:59.754Z,90.26
2022-08-01T09:27:27.536Z,90.65
2022-08-01T09:30:01.173Z,88.99
2022-08-01T09:32:35.853Z,89.62
2022-08-01T09:35:30.799Z,89.35
2022-08-01T09:38:17.394Z,89.38
2022-08-01T09:40:53.238Z,89.71
2022-08-01T09:43:25.236Z,89.20
2022-08-01T09:45:55.496Z,88.07
2022-08-01T09:48:29.640Z,88.29
2022-08-01T09:51:04.113Z,87.58
2022-08-01T09:53:51.199Z,86.39
2022-08-01T09:56:19.518Z,87.60
2022-08-01T09:58:58.503Z,86.37
2022-08-01T10:01:37.305Z,86.19
2022-08-01T10:04:10.983Z,85.78
2022-08-01T10:06:39.932Z,84.75
2022-08-01T10:09:09.276Z,86.22
2022-08-01T10:11:39.905Z,85.45
2022-08-01T10:14:08.076Z,85.15
2022-08-01T10:16:36.844Z,84.49
2022-08-01T10:19:14.725Z,84.82
2022-08-01T10:21:56.184Z,81.41
2022-08-01T10:24:27.603Z,80.72
2022-08-01T10:27:00.653Z,80.62
2022-08-01T10:30:00.171Z,80.32
2022-08-01T10:32:26.167Z,80.57
2022-08-01T10:34:58.626Z,80.79
2022-08-01T10:37:26.911Z,81.23
2022-08-01T10:40:14.018Z,81.87
2022-08-01T10:42:44.281Z,80.66
2022-08-01T10:45:14.833Z,80.99
2022-08-01T10:47:52.149Z,79.58
2022-08-01T10:50:26.983Z,79.48
2022-08-01T10:53:16.399Z,80.13
2022-08-01T10:55:55.207Z,79.00
2022-08-01T10:58:25.161Z,78.64
2022-08-01T11:01:18.020Z,77.95
2022-08-01T11:04:01.565Z,76.90
2022-08-01T11:06:49.931Z,77.20
2022-08-01T11:09:24.710Z,77.40
2022-08-01T11:12:12.774Z,77.04
2022-08-01T11:15:29.258Z,76.01
2022-08-01T11:18:02.862Z,75.49
2022-08-01T11:20:34.377Z,75.22
2022-08-01T11:23:23.456Z,73.74
2022-08-01T11:26:10.475Z,71.36
2022-08-01T11:28:40.595Z,72.32
2022-08-01T11:31:36.988Z,72.85
2022-08-01T11:34:05.717Z,73.28
2022-08-01T11:36:57.703Z,71.36
2022-08-01T11:39:22.777Z,71.15
2022-08-01T11:41:50.745Z,70.14
2022-08-01T11:44:26.568Z,71.64
2022-08-01T11:46:57.191Z,70.10
2022-08-01T11:49:29.265Z,70.40
2022-08-01T11:52:04.220Z,68.33
2022-08-01T11:54:36.924Z,67.82
2022-08-01T11:57:06.794Z,68.01
2022-08-01T11:59:41.334Z,67.02
2022-08-01T12:02:30.035Z,66.42
2022-08-01T12:05:00.948Z,66.77
2022-08-01T12:07:32.878Z,66.68
2022-08-01T12:10:05.034Z,67.39
2022-08-01T12:12:33.890Z,67.30
2022-08-01T12:15:03.466Z,65.22
2022-08-01T12:17:36.326Z,64.41
2022-08-01T12:20:06.530Z,64.99
2022-08-01T12:22:34.328Z,64.04
2022-08-01T12:25:09.931Z,64.77
2022-08-01T12:27:38.825Z,65.25
2022-08-01T12:30:09.360Z,65.31
2022-08-01T12:32:39.093Z,64.79
2022-08-01T12:35:08.657Z,63.78
2022-08-01T12:37:38.081Z,63.98
2022-08-01T12:40:17.293Z,63.36
2022-08-01T12:42:47.038Z,64.18
2022-08-01T12:45:16.705Z,64.49
2022-08-01T12:47:44.893Z,63.99
2022-08-01T12:50:17.041Z,64.12
2022-08-01T12:52:45.207Z,63.92
2022-08-01T12:55:16.042Z,64.11
2022-08-01T12:57:46.509Z,63.97
2022-08-01T13:00:18.000Z,63.70
2022-08-01T13:02:46.558Z,64.63
2022-08-01T13:05:15.425Z,64.35
2022-08-01T13:07:46.213Z,64.00
2022-08-01T13:10:16.661Z,64.23
2022-08-01T13:12:54.923Z,63.63
2022-08-01T13:15:25.380Z,63.64
2022-08-01T13:17:53.434Z,64.30
2022-08-01T13:20:30.387Z,63.19
2022-08-01T13:23:12.696Z,63.33
2022-08-01T13:25:52.192Z,62.82
2022-08-01T13:28:21.972Z,63.11
2022-08-01T13:31:08.365Z,62.36
2022-08-01T13:33:44.147Z,62.46
2022-08-01T13:36:11.911Z,62.40
2022-08-01T13:39:08.207Z,62.33
2022-08-01T13:41:37.286Z,62.23
2022-08-01T13:44:05.350Z,62.83
2022-08-01T13:46:33.262Z,62.57
2022-08-01T13:49:06.638Z,63.17
2022-08-01T13:51:43.973Z,62.59
2022-08-01T13:54:11.720Z,62.32
2022-08-01T13:56:40.776Z,61.64
2022-08-01T13:59:08.604Z,61.93
2022-08-01T14:01:36.645Z,61.55
2022-08-01T14:04:06.072Z,61.09
2022-08-01T14:06:33.980Z,61.54
2022-08-01T14:09:03.092Z,61.61
2022-08-01T14:11:47.766Z,61.85
2022-08-01T14:14:15.531Z,61.23
2022-08-01T14:16:45.591Z,60.89
2022-08-01T14:19:13.322Z,61.76
2022-08-01T14:21:41.256Z,61.44
2022-08-01T14:24:10.491Z,61.14
2022-08-01T14:26:38.277Z,61.61
2022-08-01T14:29:07.420Z,61.96
2022-08-01T14:31:35.225Z,62.89
2022-08-01T14:34:03.384Z,62.61
2022-08-01T14:36:32.404Z,62.12
2022-08-01T14:39:04.550Z,62.78
2022-08-01T14:41:32.443Z,62.97
2022-08-01T14:44:00.745Z,62.92
2022-08-01T14:46:31.609Z,62.72
2022-08-01T14:49:03.187Z,62.47
2022-08-01T14:51:33.984Z,62.69
2022-08-01T14:54:03.091Z,61.41
2022-08-01T14:56:31.818Z,62.10
2022-08-01T14:58:59.782Z,61.90
2022-08-01T15:01:27.555Z,61.89
2022-08-01T15:03:56.830Z,62.51
2022-08-01T15:06:24.592Z,62.26
2022-08-01T15:08:52.685Z,61.90
2022-08-01T15:11:20.491Z,62.25
2022-08-01T15:14:08.267Z,62.34
2022-08-01T15:16:36.049Z,61.62
2022-08-01T15:19:05.397Z,61.89
2022-08-01T15:21:41.974Z,61.84
2022-08-01T15:24:10.961Z,62.47
2022-08-01T15:26:38.720Z,62.44
2022-08-01T15:29:06.684Z,62.36
2022-08-01T15:31:34.482Z,61.88
2022-08-01T15:34:09.084Z,62.12
2022-08-01T15:36:36.811Z,62.09
2022-08-01T15:39:09.857Z,62.37
2022-08-01T15:41:37.837Z,61.51
2022-08-01T15:44:05.744Z,61.23
2022-08-01T15:46:33.477Z,60.95
2022-08-01T15:49:04.053Z,60.98
2022-08-01T15:51:34.024Z,60.69
2022-08-01T15:54:03.994Z,60.95
2022-08-01T15:56:31.896Z,60.84
2022-08-01T15:59:00.249Z,61.57
2022-08-01T16:01:28.147Z,60.82
2022-08-01T16:03:56.409Z,60.68
2022-08-01T16:06:24.851Z,60.62
2022-08-01T16:08:54.248Z,61.11
2022-08-01T16:11:23.697Z,61.07
2022-08-01T16:13:51.426Z,61.36
2022-08-01T16:16:19.315Z,61.32
2022-08-01T16:18:47.220Z,61.12
2022-08-01T16:21:22.505Z,60.44
2022-08-01T16:23:50.898Z,61.37
2022-08-01T16:26:28.009Z,61.12
2022-08-01T16:28:56.189Z,61.92
2022-08-01T16:31:37.848Z,61.22
2022-08-01T16:34:13.109Z,61.17
2022-08-01T16:36:42.901Z,61.83
2022-08-01T16:39:11.341Z,61.83
2022-08-01T16:41:40.550Z,61.29
2022-08-01T16:44:08.308Z,61.55
2022-08-01T16:46:36.067Z,61.70
2022-08-01T16:49:06.491Z,61.96
2022-08-01T16:51:39.573Z,62.23
2022-08-01T16:54:24.884Z,61.98
2022-08-01T16:56:56.058Z,61.55
2022-08-01T16:59:25.650Z,61.20
2022-08-01T17:02:03.402Z,61.20
2022-08-01T17:04:31.303Z,60.97
2022-08-01T17:06:59.170Z,60.88
2022-08-01T17:09:26.904Z,61.54
2022-08-01T17:11:56.035Z,61.04
2022-08-01T17:14:23.739Z,60.96
2022-08-01T17:16:51.438Z,60.67
2022-08-01T17:19:19.192Z,60.29
2022-08-01T17:21:54.601Z,60.90
2022-08-01T17:24:22.322Z,60.49
2022-08-01T17:26:50.083Z,60.38
2022-08-01T17:29:19.140Z,61.33
2022-08-01T17:31:46.845Z,60.94
2022-08-01T17:34:14.578Z,61.00
2022-08-01T17:36:42.330Z,60.51
2022-08-01T17:39:12.255Z,61.23
2022-08-01T17:41:40.205Z,61.51
2022-08-01T17:44:08.145Z,60.73
2022-08-01T17:46:37.261Z,60.10
2022-08-01T17:49:05.869Z,60.09
2022-08-01T17:51:33.728Z,60.22
2022-08-01T17:54:01.618Z,60.19
2022-08-01T17:56:30.424Z,60.18
2022-08-01T17:58:58.764Z,59.50
2022-08-01T18:01:27.421Z,59.65
2022-08-01T18:03:58.345Z,59.65
2022-08-01T18:06:26.390Z,60.05
2022-08-01T18:08:56.365Z,59.22
2022-08-01T18:11:27.505Z,59.36
2022-08-01T18:13:56.441Z,59.09
2022-08-01T18:16:24.486Z,59.73
2022-08-01T18:18:52.214Z,59.59
2022-08-01T18:21:21.252Z,59.68
2022-08-01T18:23:51.791Z,59.59
2022-08-01T18:26:20.430Z,59.42
2022-08-01T18:28:48.160Z,59.66
2022-08-01T18:31:17.724Z,59.53
2022-08-01T18:33:46.023Z,59.98
2022-08-01T18:36:15.351Z,59.29
2022-08-01T18:39:01.882Z,59.67
2022-08-01T18:41:32.263Z,59.90
2022-08-01T18:44:05.719Z,59.59
2022-08-01T18:46:38.880Z,60.84
2022-08-01T18:49:07.629Z,60.55
2022-08-01T18:51:37.884Z,60.66
2022-08-01T18:54:12.358Z,61.04
2022-08-01T18:56:40.121Z,60.63
2022-08-01T18:59:08.099Z,60.80
2022-08-01T19:01:36.001Z,61.41
2022-08-01T19:04:04.569Z,62.03
2022-08-01T19:06:32.307Z,62.39
2022-08-01T19:09:02.616Z,62.14
2022-08-01T19:11:32.303Z,62.15
2022-08-01T19:14:02.185Z,61.66
2022-08-01T19:16:30.541Z,60.99
2022-08-01T19:18:58.459Z,61.39
2022-08-01T19:21:26.376Z,61.13
2022-08-01T19:24:11.920Z,62.48
2022-08-01T19:26:41.274Z,61.27
2022-08-01T19:29:11.204Z,61.18
2022-08-01T19:31:45.474Z,60.69
2022-08-01T19:34:17.633Z,61.70
2022-08-01T19:36:47.386Z,61.53
2022-08-01T19:39:16.678Z,61.41
2022-08-01T19:41:47.136Z,61.84
2022-08-01T19:44:16.495Z,62.05
2022-08-01T19:46:44.873Z,61.56
2022-08-01T19:49:13.197Z,61.49
2022-08-01T19:51:43.059Z,61.17
2022-08-01T19:54:12.256Z,60.92
2022-08-01T19:56:44.475Z,60.65
2022-08-01T19:59:17.200Z,61.99
2022-08-01T20:01:45.417Z,62.03
2022-08-01T20:04:15.297Z,61.40
2022-08-01T20:06:43.664Z,61.80
2022-08-01T20:09:12.934Z,62.73
2022-08-01T20:11:45.354Z,62.84
2022-08-01T20:14:14.519Z,61.54
2022-08-01T20:16:44.741Z,63.04
2022-08-01T20:19:12.931Z,62.66
2022-08-01T20:21:41.594Z,62.20
2022-08-01T20:24:22.879Z,62.25
2022-08-01T20:26:56.559Z,62.25
2022-08-01T20:29:25.684Z,62.53
2022-08-01T20:31:55.327Z,62.95
2022-08-01T20:34:24.572Z,62.47
2022-08-01T20:36:56.910Z,62.68
2022-08-01T20:39:26.654Z,64.02
2022-08-01T20:41:59.890Z,63.77
2022-08-01T20:44:31.656Z,63.94
2022-08-01T20:47:03.460Z,64.06
2022-08-01T20:49:31.935Z,65.29
2022-08-01T20:51:59.948Z,63.78
2022-08-01T20:54:29.982Z,64.08
2022-08-01T20:56:59.618Z,63.61
2022-08-01T20:59:55.342Z,63.74
2022-08-01T21:02:32.030Z,63.44
2022-08-01T21:05:05.207Z,62.95
2022-08-01T21:07:34.495Z,63.51
2022-08-01T21:10:06.559Z,63.51
2022-08-01T21:12:43.575Z,63.24
2022-08-01T21:15:16.098Z,63.20
2022-08-01T21:17:48.049Z,63.29
2022-08-01T21:20:16.227Z,62.86
2022-08-01T21:22:52.388Z,62.83
2022-08-01T21:25:26.693Z,63.46
2022-08-01T21:27:56.184Z,62.97
2022-08-01T21:30:24.973Z,63.24
2022-08-01T21:32:54.401Z,62.83
2022-08-01T21:35:23.022Z,62.96
2022-08-01T21:37:52.519Z,63.30
2022-08-01T21:40:21.791Z,62.92
2022-08-01T21:42:51.694Z,62.80
2022-08-01T21:45:20.813Z,63.17
2022-08-01T21:47:50.243Z,63.82
2022-08-01T21:50:19.438Z,63.33
2022-08-01T21:52:49.653Z,63.29
2022-08-01T21:55:32.159Z,63.64
2022-08-01T21:58:27.223Z,63.26
2022-08-01T22:01:04.360Z,63.74
2022-08-01T22:03:37.549Z,63.25
2022-08-01T22:06:06.880Z,63.27
2022-08-01T22:08:36.826Z,63.51
2022-08-01T22:11:06.801Z,63.07
2022-08-01T22:13:35.586Z,62.92
2022-08-01T22:16:04.702Z,63.02
2022-08-01T22:18:34.714Z,63.44
2022-08-01T22:21:02.984Z,63.79
2022-08-01T22:23:36.080Z,63.47
2022-08-01T22:26:06.749Z,63.41
2022-08-01T22:28:35.297Z,63.67
2022-08-01T22:31:03.383Z,63.41
2022-08-01T22:33:31.148Z,63.55
2022-08-01T22:35:59.574Z,63.27
2022-08-01T22:38:27.389Z,63.20
2022-08-01T22:41:05.298Z,63.28
2022-08-01T22:43:40.027Z,63.09
2022-08-01T22:46:17.233Z,63.33
2022-08-01T22:48:47.337Z,63.11
2022-08-01T22:51:25.944Z,63.43
2022-08-01T22:53:56.340Z,63.43
2022-08-01T22:56:25.596Z,63.69
2022-08-01T22:58:53.758Z,63.21
2022-08-01T23:01:23.202Z,62.96
2022-08-01T23:03:51.775Z,63.09
2022-08-01T23:06:23.819Z,63.11
2022-08-01T23:08:51.932Z,63.40
2022-08-01T23:11:20.935Z,63.23
2022-08-01T23:13:51.908Z,63.41
2022-08-01T23:16:19.675Z,63.18
2022-08-01T23:18:47.622Z,63.34
2022-08-01T23:21:17.652Z,63.62
2022-08-01T23:23:45.708Z,63.65
2022-08-01T23:26:15.527Z,63.41
2022-08-01T23:28:44.474Z,63.39
2022-08-01T23:31:14.677Z,63.39
2022-08-01T23:33:42.368Z,63.37
2022-08-01T23:36:10.149Z,63.03
2022-08-01T23:38:37.927Z,63.32
2022-08-01T23:41:14.688Z,63.65
2022-08-01T23:43:50.936Z,63.62
2022-08-01T23:46:21.631Z,63.61
2022-08-01T23:48:49.377Z,64.05
2022-08-01T23:51:24.326Z,64.25
2022-08-01T23:53:53.029Z,64.00
2022-08-01T23:56:25.107Z,63.79
2022-08-01T23:58:53.212Z,63.55
